Flight Track Log - Related Links

Times and Time Zones

All times are in EDT time to prevent confusion due to time zone crossing. See the N656JG flight status page for this flight to view local times or setup timezone preferences in your user account.

Time Position Orientation Groundspeed Altitude Reporting Facility
EDT Latitude Longitude Course Direction KTS MPH feet Rate Location/Type
Mon 02:33:25 PM 44.8122 -93.5047 226° Southwest 212 244 2,400  Level Minneapolis Center
Mon 02:34:27 PM 44.7639 -93.5747 226° Southwest 252 290 6,300 3,696 Climbing Minneapolis Center
Mon 02:35:30 PM 44.7164 -93.6428 226° Southwest 247 284 10,100 3,504 Climbing Minneapolis Center
Mon 02:36:32 PM 44.6669 -93.7169 227° Southwest 261 300 13,600 3,339 Climbing Minneapolis Center
Mon 02:37:34 PM 44.6072 -93.8078 227° Southwest 266 306 17,000 1,694 Climbing Minneapolis Center
Mon 02:38:36 PM 44.5481 -93.9083 230° Southwest 349 402 17,100 48 Climbing Minneapolis Center
Mon 02:39:38 PM 44.4914 -94.0186 234° Southwest 350 403 17,100  Level Minneapolis Center
Mon 02:40:40 PM 44.4331 -94.1289 233° Southwest 352 405 17,100 1,016 Level Minneapolis Center
Mon 02:41:42 PM 44.3775 -94.2364 234° Southwest 344 396 19,200 2,371 Climbing Minneapolis Center
Mon 02:42:44 PM 44.3256 -94.3358 234° Southwest 325 374 22,000 1,355 Climbing Minneapolis Center
Mon 02:43:46 PM 44.2547 -94.4669 233° Southwest 347 399 22,000  Level Minneapolis Center
Mon 02:44:48 PM 44.1922 -94.5853 234° Southwest 372 428 22,000  Level Minneapolis Center
Mon 02:45:50 PM 44.1317 -94.6964 233° Southwest 384 442 22,000  Level Minneapolis Center
Mon 02:46:53 PM 44.0889 -94.8561 250° West 370 426 22,000  Level Minneapolis Center
Mon 02:47:55 PM 44.0544 -94.9894 250° West 366 421 22,000  Level Minneapolis Center
Mon 02:48:56 PM 44.0261 -95.0958 250° West 367 422 22,000  Level Minneapolis Center
Mon 02:49:59 PM 43.9842 -95.2558 250° West 367 422 22,000  Level Minneapolis Center
Mon 02:51:01 PM 43.9486 -95.3917 250° West 372 428 22,000  Level Minneapolis Center
Mon 02:52:15 PM 43.9119 -95.5272 249° West 374 430 22,000  Level Minneapolis Center
Mon 02:53:17 PM 43.8603 -95.7194 250° West 378 435 22,000 -624 Level Minneapolis Center
Mon 02:54:20 PM 43.8247 -95.8536 250° West 372 428 20,700 -2,064 Descending Minneapolis Center
Mon 02:55:22 PM 43.7908 -95.9803 250° West 354 407 17,700 -2,806 Descending Minneapolis Center
Mon 02:56:24 PM 43.7572 -96.1039 249° West 345 397 14,900 -2,758 Descending Minneapolis Center
Mon 02:57:26 PM 43.7239 -96.2261 249° West 340 391 12,000 -2,710 Descending Minneapolis Center
Mon 02:58:28 PM 43.6919 -96.3414 249° West 332 382 9,300 -2,468 Descending Minneapolis Center
Mon 02:59:30 PM 43.6636 -96.4472 250° West 316 364 6,900 -2,613 Descending Minneapolis Center
Mon 03:00:32 PM 43.6306 -96.5517 246° West 273 314 3,900 -1,839 Descending Minneapolis Center
Mon 03:01:34 PM 43.5992 -96.6264 240° Southwest 249 287 3,100 -677 Descending Minneapolis Center
Mon 03:02:36 PM 43.5644 -96.6756 226° Southwest 210 242 2,500 -629 Descending Minneapolis Center
Mon 03:03:38 PM 43.5589 -96.7239 261° West 167 192 1,800 -677 Descending Minneapolis Center
Mon 03:05:00 PM 43.5667 -96.7333 235° Southwest  Level FlightAware
Mon 03:12:00 PM 43.5820 -96.7419 235° Southwest  Level Estimated
Mon 03:13:00 PM 43.5820 -96.7419 235° Southwest  Level Estimated

Login

Don't have an account? Register now (free) for customized features, flight alerts, and more!